Overview Statistics Trail Chart Weather Telemetry Raw packets
 

This is the latest recevied weather packets stored in our database for station/object WX5KDM. If no packets are shown the sender has not sent any weather packets the latest 10 day(s).

<< 9 10 11 12 13 14 15 >>
Time Temp. Humidity Pressure Rain* Wind** Luminosity Snow
1788558853 33.89° C 55% 1013.7 hPa 0 mm - - -
1788558549 33.89° C 56% 1013.6 hPa 0 mm - - -
1788558244 33.89° C 57% 1013.6 hPa 0 mm - - -
1788557942 33.33° C 56% 1013.6 hPa 0 mm - - -
1788557637 32.78° C 59% 1013.5 hPa 0 mm - - -
1788557333 32.78° C 59% 1013.7 hPa 0 mm - - -
1788557026 33.33° C 58% 1013.9 hPa 0 mm - - -
1788556722 33.33° C 58% 1013.9 hPa 0 mm - - -
1788556417 34.44° C 55% 1013.7 hPa 0 mm - - -
1788556112 37.78° C 45% 1013.7 hPa 0 mm - - -
1788555806 38.33° C 42% 1013.6 hPa 0 mm - - -
1788555503 37.78° C 43% 1013.6 hPa 0 mm - - -
1788555198 37.78° C 42% 1013.5 hPa 0 mm - - -
1788554895 37.78° C 43% 1013.6 hPa 0 mm - - -
1788554591 37.78° C 42% 1013.5 hPa 0 mm - - -
1788554287 37.78° C 43% 1013.5 hPa 0 mm - - -
1788553983 37.78° C 40% 1013.6 hPa 0 mm - - -
1788553678 37.78° C 43% 1013.8 hPa 0 mm - - -
1788553375 37.78° C 41% 1013.8 hPa 0 mm - - -
1788553069 37.78° C 43% 1014 hPa 0 mm - - -
1788552764 37.78° C 41% 1013.9 hPa 0 mm - - -
1788552458 37.78° C 43% 1014.2 hPa 0 mm - - -
1788552153 37.22° C 43% 1014.3 hPa 0 mm - - -
1788551852 37.22° C 41% 1014.3 hPa 0 mm - - -
1788551551 37.22° C 43% 1014.4 hPa 0 mm - - -

* Rain latest hour (hover to see other rain measurements)
** Current wind speed in m/s (hover to see current wind gust speed)